Time;durP1;ratioP1;P1;durP2;ratioP2;P2;SDS_P1;SDS_P2;PMS_P1;PMS_P2;Temp;Humidity;BMP_temperature;BMP_pressure;BME280_temperature;BME280_humidity;BME280_pressure;Samples;Min_cycle;Max_cycle;Signal;HPM_P1;HPM_P2
2023/03/09 00:00:54;;;;;;;11.30;7.85;;;;;;;0.20;100.00;99230.66;5072300;28;20622;-74
2023/03/09 00:03:21;;;;;;;11.18;7.90;;;;;;;0.18;100.00;99227.69;5072528;28;20050;-74
2023/03/09 00:05:56;;;;;;;12.80;8.30;;;;;;;0.18;100.00;99225.09;5072233;28;20055;-74
2023/03/09 00:08:23;;;;;;;13.80;8.07;;;;;;;0.18;100.00;99243.41;5072736;28;20043;-74
2023/03/09 00:10:52;;;;;;;16.15;7.75;;;;;;;0.17;100.00;99236.69;5072510;28;20497;-74
2023/03/09 00:13:20;;;;;;;12.40;8.18;;;;;;;0.14;100.00;99231.53;5071772;28;20049;-74
2023/03/09 00:15:50;;;;;;;11.45;7.45;;;;;;;0.13;100.00;99238.63;5072007;28;20102;-73
2023/03/09 00:18:18;;;;;;;14.30;8.27;;;;;;;0.14;100.00;99245.34;5070681;28;20241;-73
2023/03/09 00:20:44;;;;;;;12.05;8.20;;;;;;;0.15;100.00;99246.09;5071318;28;20481;-75
2023/03/09 00:23:11;;;;;;;13.13;8.10;;;;;;;0.14;100.00;99247.97;5072170;28;20140;-73
2023/03/09 00:25:38;;;;;;;12.43;8.68;;;;;;;0.14;100.00;99253.19;5071954;28;20048;-74
2023/03/09 00:28:05;;;;;;;13.63;8.70;;;;;;;0.16;100.00;99264.00;5071839;28;20087;-74
2023/03/09 00:30:32;;;;;;;13.60;8.27;;;;;;;0.17;100.00;99259.50;5070535;28;20457;-74
2023/03/09 00:33:00;;;;;;;12.90;8.77;;;;;;;0.17;100.00;99262.13;5069954;28;20040;-73
2023/03/09 00:35:27;;;;;;;11.23;7.13;;;;;;;0.16;100.00;99253.53;5070990;28;20087;-73
2023/03/09 00:37:54;;;;;;;11.57;8.07;;;;;;;0.18;100.00;99255.75;5070113;28;20099;-73
2023/03/09 00:40:21;;;;;;;11.10;7.82;;;;;;;0.15;100.00;99270.38;5070295;28;20132;-73
2023/03/09 00:42:48;;;;;;;12.77;8.20;;;;;;;0.16;100.00;99273.72;5071744;28;20041;-73
2023/03/09 00:45:15;;;;;;;10.98;7.68;;;;;;;0.15;100.00;99270.38;5071547;28;20558;-73
2023/03/09 00:47:42;;;;;;;12.35;8.27;;;;;;;0.14;100.00;99255.06;5070166;28;20080;-73
2023/03/09 00:50:10;;;;;;;11.40;8.07;;;;;;;0.12;100.00;99252.88;5070927;28;20490;-73
2023/03/09 00:52:36;;;;;;;13.65;8.90;;;;;;;0.11;100.00;99246.16;5071737;28;20037;-74
2023/03/09 00:55:03;;;;;;;15.00;8.40;;;;;;;0.11;100.00;99248.78;5069945;28;20045;-74
2023/03/09 00:57:29;;;;;;;13.13;8.45;;;;;;;0.13;100.00;99256.22;5071381;28;20045;-73
2023/03/09 00:59:56;;;;;;;15.18;8.85;;;;;;;0.11;100.00;99254.00;5073481;28;20210;-74
2023/03/09 01:02:23;;;;;;;11.57;8.38;;;;;;;0.10;100.00;99260.38;5075038;28;20494;-74
2023/03/09 01:04:50;;;;;;;12.35;8.07;;;;;;;0.09;100.00;99266.00;5073117;28;20037;-73
2023/03/09 01:07:18;;;;;;;11.95;8.80;;;;;;;0.08;100.00;99275.75;5074821;28;20485;-73
2023/03/09 01:09:44;;;;;;;15.82;8.50;;;;;;;0.11;100.00;99288.03;5074764;28;20124;-73
2023/03/09 01:12:11;;;;;;;13.15;8.43;;;;;;;0.13;100.00;99300.72;5074878;28;20041;-73
2023/03/09 01:14:37;;;;;;;13.65;8.32;;;;;;;0.13;100.00;99306.69;5073589;28;20060;-74
2023/03/09 01:17:04;;;;;;;11.23;8.02;;;;;;;0.14;100.00;99307.41;5073316;28;20052;-73
2023/03/09 01:19:30;;;;;;;13.55;8.90;;;;;;;0.14;100.00;99315.28;5106570;27;20513;-73
2023/03/09 01:22:00;;;;;;;12.57;8.55;;;;;;;0.14;100.00;99297.69;5106842;28;20051;-73
2023/03/09 01:24:26;;;;;;;11.77;7.75;;;;;;;0.15;100.00;99293.19;5073262;28;20041;-73
2023/03/09 01:26:55;;;;;;;14.50;8.52;;;;;;;0.15;100.00;99298.44;5073236;28;20152;-72
2023/03/09 01:29:21;;;;;;;16.10;9.38;;;;;;;0.15;100.00;99306.28;5072743;28;20056;-73
2023/03/09 01:31:48;;;;;;;10.50;7.82;;;;;;;0.16;100.00;99300.66;5074490;28;20043;-73
2023/03/09 01:34:15;;;;;;;13.38;7.93;;;;;;;0.15;100.00;99301.78;5072970;28;20045;-73
2023/03/09 01:36:41;;;;;;;13.32;7.78;;;;;;;0.14;100.00;99313.38;5072894;28;20049;-72
2023/03/09 01:39:10;;;;;;;12.50;8.48;;;;;;;0.15;100.00;99314.13;5072751;28;20173;-73
2023/03/09 01:41:37;;;;;;;11.63;7.95;;;;;;;0.16;100.00;99313.72;5073394;28;20073;-73
2023/03/09 01:44:10;;;;;;;15.88;8.18;;;;;;;0.17;100.00;99319.69;5073436;28;20056;-73
2023/03/09 01:46:39;;;;;;;13.32;7.80;;;;;;;0.17;100.00;99325.66;5074643;28;20052;-73
2023/03/09 01:49:24;;;;;;;10.75;7.80;;;;;;;0.17;100.00;99338.75;5072476;28;20049;-73
2023/03/09 01:52:12;;;;;;;12.63;8.35;;;;;;;0.20;100.00;99337.22;5106681;28;20520;-73
2023/03/09 01:54:53;;;;;;;13.02;8.10;;;;;;;0.18;100.00;99336.88;5074570;28;20045;-73
2023/03/09 01:57:32;;;;;;;11.23;8.57;;;;;;;0.16;100.00;99337.28;5106443;28;20199;-73
2023/03/09 02:00:05;;;;;;;12.90;8.20;;;;;;;0.20;100.00;99334.59;5072587;28;20454;-72
2023/03/09 02:02:44;;;;;;;12.30;8.18;;;;;;;0.20;100.00;99345.81;5072284;28;20179;-73
2023/03/09 02:05:15;;;;;;;;;;;;;;;0.21;100.00;99347.28;5072870;28;20466;-73
2023/03/09 02:07:45;;;;;;;8.80;6.57;;;;;;;0.19;100.00;99339.09;5072393;28;19979;-73
2023/03/09 02:10:34;;;;;;;;;;;;;;;0.21;100.00;99349.16;5072385;28;20457;-73
2023/03/09 02:13:06;;;;;;;12.32;7.28;;;;;;;0.21;100.00;99351.78;5072437;28;19959;-73
2023/03/09 02:15:34;;;;;;;12.15;8.02;;;;;;;0.23;100.00;99352.13;5106667;28;20045;-73
2023/03/09 02:18:01;;;;;;;13.02;7.85;;;;;;;0.22;100.00;99361.84;5071408;28;20045;-74
2023/03/09 02:21:04;;;;;;;11.68;7.63;;;;;;;0.22;100.00;99361.84;5073846;28;20045;-73
2023/03/09 02:23:36;;;;;;;11.63;7.80;;;;;;;0.20;100.00;99353.66;5073850;28;20108;-73
2023/03/09 02:26:19;;;;;;;13.88;8.07;;;;;;;0.20;100.00;99364.13;5073824;28;20033;-72
2023/03/09 02:28:47;;;;;;;12.52;8.50;;;;;;;0.21;100.00;99363.00;5106112;28;20084;-73
2023/03/09 02:31:14;;;;;;;14.43;8.95;;;;;;;0.23;100.00;99376.41;5071696;28;20091;-73
2023/03/09 02:33:42;;;;;;;15.38;8.85;;;;;;;0.22;100.00;99376.81;5073308;28;20048;-73
2023/03/09 02:36:09;;;;;;;16.23;9.30;;;;;;;0.22;100.00;99385.41;5071996;28;20057;-73
2023/03/09 02:38:39;;;;;;;14.30;9.35;;;;;;;0.21;100.00;99375.34;5106179;28;20055;-72
2023/03/09 02:41:09;;;;;;;12.93;8.70;;;;;;;0.21;100.00;99370.09;5073576;28;20048;-73
2023/03/09 02:43:42;;;;;;;14.48;8.65;;;;;;;0.19;100.00;99360.03;5074132;28;20498;-72
2023/03/09 02:46:09;;;;;;;16.35;8.93;;;;;;;0.19;100.00;99364.53;5072958;28;20139;-72
2023/03/09 02:48:38;;;;;;;14.88;8.40;;;;;;;0.18;100.00;99369.03;5072068;28;20088;-73
2023/03/09 02:51:06;;;;;;;14.90;9.27;;;;;;;0.17;100.00;99372.03;5105642;27;20512;-72
2023/03/09 02:53:33;;;;;;;14.75;8.80;;;;;;;0.17;100.00;99370.16;5071635;28;20051;-72
2023/03/09 02:56:00;;;;;;;15.50;9.23;;;;;;;0.18;100.00;99376.88;5071502;28;20045;-73
2023/03/09 02:58:26;;;;;;;14.27;9.48;;;;;;;0.18;100.00;99384.00;5071707;28;20072;-73
2023/03/09 03:00:53;;;;;;;15.88;9.23;;;;;;;0.18;100.00;99379.50;5071023;28;20055;-73
2023/03/09 03:03:21;;;;;;;14.75;9.50;;;;;;;0.18;100.00;99378.75;5071717;28;20045;-72
2023/03/09 03:05:49;;;;;;;14.27;8.60;;;;;;;0.18;100.00;99386.59;5071645;28;20115;-72
2023/03/09 03:08:16;;;;;;;15.02;9.93;;;;;;;0.17;100.00;99390.38;5071614;28;20232;-73
2023/03/09 03:11:02;;;;;;;12.02;8.63;;;;;;;0.20;100.00;99400.03;5071524;28;20049;-73
2023/03/09 03:13:28;;;;;;;13.20;9.20;;;;;;;0.18;100.00;99394.47;5071485;28;20172;-73
2023/03/09 03:16:02;;;;;;;15.25;9.30;;;;;;;0.19;100.00;99411.63;5070673;28;20051;-72
2023/03/09 03:18:29;;;;;;;13.18;8.98;;;;;;;0.21;100.00;99417.22;5071133;28;20045;-72
2023/03/09 03:20:57;;;;;;;13.63;8.63;;;;;;;0.19;100.00;99412.38;5071112;28;20107;-72
2023/03/09 03:23:24;;;;;;;12.52;8.55;;;;;;;0.19;100.00;99409.75;5104274;28;20055;-72
2023/03/09 03:25:53;;;;;;;14.38;8.95;;;;;;;0.16;100.00;99413.19;5105151;27;20049;-72
2023/03/09 03:28:20;;;;;;;13.82;8.45;;;;;;;0.15;100.00;99410.97;5071086;28;20053;-72
2023/03/09 03:30:52;;;;;;;14.80;9.23;;;;;;;0.15;100.00;99416.19;5070566;28;20080;-72
2023/03/09 03:33:22;;;;;;;13.27;8.23;;;;;;;0.16;100.00;99418.41;5070616;28;20490;-72
2023/03/09 03:35:49;;;;;;;13.60;8.73;;;;;;;0.17;100.00;99422.50;5104784;28;20049;-72
2023/03/09 03:38:16;;;;;;;13.77;8.27;;;;;;;0.17;100.00;99419.88;5071034;28;20045;-72
2023/03/09 03:40:43;;;;;;;15.38;8.07;;;;;;;0.16;100.00;99423.66;5070973;28;20051;-73
2023/03/09 03:43:11;;;;;;;11.18;7.85;;;;;;;0.16;100.00;99436.00;5071037;28;20052;-73
2023/03/09 03:45:41;;;;;;;13.57;9.32;;;;;;;0.16;100.00;99447.19;5070540;28;20056;-73
2023/03/09 03:48:09;;;;;;;15.52;9.27;;;;;;;0.16;100.00;99441.97;5070778;28;20045;-72
2023/03/09 03:50:35;;;;;;;15.05;8.63;;;;;;;0.16;100.00;99438.59;5071147;28;20053;-72
2023/03/09 03:53:03;;;;;;;13.88;8.95;;;;;;;0.16;100.00;99443.84;5070871;28;20051;-72
2023/03/09 03:55:30;;;;;;;15.25;9.10;;;;;;;0.16;100.00;99441.97;5070611;28;20410;-72
2023/03/09 03:57:57;;;;;;;15.40;9.70;;;;;;;0.17;100.00;99455.78;5070105;28;20049;-72
2023/03/09 04:00:25;;;;;;;13.93;9.13;;;;;;;0.17;100.00;99458.41;5104562;28;20045;-73
2023/03/09 04:02:55;;;;;;;14.18;8.88;;;;;;;0.18;100.00;99463.25;5070415;28;20520;-72
2023/03/09 04:05:31;;;;;;;12.35;8.38;;;;;;;0.19;100.00;99461.38;5104237;28;20095;-72
2023/03/09 04:07:57;;;;;;;12.95;8.57;;;;;;;0.18;100.00;99455.41;5070451;28;20076;-72
2023/03/09 04:10:24;;;;;;;14.30;9.05;;;;;;;0.17;100.00;99464.38;5070504;28;20083;-73
2023/03/09 04:12:52;;;;;;;12.20;8.73;;;;;;;0.18;100.00;99478.94;5053633;28;20132;-72
2023/03/09 04:15:18;;;;;;;14.13;8.88;;;;;;;0.20;100.00;99476.69;5070384;28;20140;-73
2023/03/09 04:17:47;;;;;;;16.48;8.85;;;;;;;0.23;100.00;99488.97;5104392;28;20575;-72
2023/03/09 04:20:15;;;;;;;18.13;9.18;;;;;;;0.24;100.00;99490.44;5070399;28;20049;-72
2023/03/09 04:22:43;;;;;;;15.23;9.73;;;;;;;0.21;100.00;99488.63;5070432;28;20045;-72
2023/03/09 04:25:12;;;;;;;14.45;9.02;;;;;;;0.23;100.00;99496.81;5070200;28;20049;-73
2023/03/09 04:27:39;;;;;;;15.25;8.85;;;;;;;0.23;100.00;99501.31;5070209;28;20083;-75
2023/03/09 04:30:12;;;;;;;13.50;8.82;;;;;;;0.23;100.00;99514.41;5072019;28;20442;-74
2023/03/09 04:32:39;;;;;;;13.90;8.70;;;;;;;0.21;100.00;99520.03;5070066;28;20119;-74
2023/03/09 04:35:07;;;;;;;14.27;8.57;;;;;;;0.23;100.00;99520.38;5103880;28;20060;-74
2023/03/09 04:37:37;;;;;;;14.43;7.90;;;;;;;0.23;100.00;99530.84;5070513;28;20137;-74
2023/03/09 04:40:05;;;;;;;13.65;8.07;;;;;;;0.25;100.00;99527.84;5104240;28;20088;-73
2023/03/09 04:42:32;;;;;;;14.32;8.75;;;;;;;0.28;100.00;99540.88;5103767;28;20507;-72
2023/03/09 04:44:59;;;;;;;12.75;8.30;;;;;;;0.26;100.00;99543.13;5070064;28;20267;-72
2023/03/09 04:47:26;;;;;;;14.27;8.93;;;;;;;0.25;100.00;99546.16;5070017;28;20120;-72
2023/03/09 04:49:53;;;;;;;14.77;8.52;;;;;;;0.26;100.00;99547.63;5069980;28;20053;-72
2023/03/09 04:52:20;;;;;;;13.98;8.70;;;;;;;0.27;100.00;99554.34;5071127;28;20072;-72
2023/03/09 04:54:48;;;;;;;12.38;8.35;;;;;;;0.28;100.00;99558.44;5103802;28;20111;-72
2023/03/09 04:57:17;;;;;;;10.35;7.78;;;;;;;0.26;100.00;99553.63;5052844;28;20049;-73
2023/03/09 04:59:45;;;;;;;15.07;8.70;;;;;;;0.26;100.00;99543.13;5069845;28;20045;-73
2023/03/09 05:02:12;;;;;;;18.13;8.70;;;;;;;0.25;100.00;99546.91;5103945;28;20140;-72
2023/03/09 05:04:43;;;;;;;15.77;8.45;;;;;;;0.25;100.00;99554.75;5069394;28;20080;-72
2023/03/09 05:07:09;;;;;;;13.40;8.80;;;;;;;0.25;100.00;99546.91;5103597;27;20053;-72
2023/03/09 05:09:37;;;;;;;16.17;8.75;;;;;;;0.24;100.00;99547.28;5070051;28;20453;-72
2023/03/09 05:12:04;;;;;;;13.90;8.65;;;;;;;0.25;100.00;99540.91;5069054;28;20574;-73
2023/03/09 05:14:33;;;;;;;13.60;8.50;;;;;;;0.23;100.00;99538.69;5103802;28;20140;-72
2023/03/09 05:17:00;;;;;;;16.23;9.57;;;;;;;0.23;100.00;99535.34;5069594;28;20045;-72
2023/03/09 05:19:27;;;;;;;12.88;8.27;;;;;;;0.24;100.00;99528.97;5069478;28;20441;-73
2023/03/09 05:21:57;;;;;;;13.63;9.13;;;;;;;0.23;100.00;99540.56;5069342;28;20510;-72
2023/03/09 05:24:24;;;;;;;17.17;10.23;;;;;;;0.22;100.00;99554.81;5069410;28;20071;-73
2023/03/09 05:26:51;;;;;;;17.00;9.52;;;;;;;0.24;100.00;99557.75;5069032;28;20574;-73
2023/03/09 05:29:19;;;;;;;16.05;8.98;;;;;;;0.26;100.00;99565.97;5069438;28;20485;-72
2023/03/09 05:31:46;;;;;;;17.65;9.57;;;;;;;0.25;100.00;99562.59;5052909;28;20519;-73
2023/03/09 05:34:13;;;;;;;15.38;9.38;;;;;;;0.25;100.00;99561.88;5070890;28;20080;-72
2023/03/09 05:36:40;;;;;;;16.67;9.15;;;;;;;0.25;100.00;99570.44;5069387;28;20044;-72
2023/03/09 05:39:12;;;;;;;15.43;9.85;;;;;;;0.26;100.00;99573.81;5069365;28;20514;-73
2023/03/09 05:41:39;;;;;;;14.57;9.02;;;;;;;0.27;100.00;99564.81;5070006;28;20041;-73
2023/03/09 05:44:15;;;;;;;16.65;8.48;;;;;;;0.25;100.00;99554.75;5068983;28;20053;-72
2023/03/09 05:46:42;;;;;;;17.00;9.20;;;;;;;0.25;100.00;99546.16;5071946;28;20099;-72
2023/03/09 05:49:10;;;;;;;20.15;9.80;;;;;;;0.26;100.00;99550.25;5074195;28;20057;-74
2023/03/09 05:51:37;;;;;;;18.92;10.18;;;;;;;0.27;100.00;99555.09;5074544;28;20044;-74
2023/03/09 05:54:03;;;;;;;18.10;10.52;;;;;;;0.28;100.00;99568.91;5071924;28;20134;-74
2023/03/09 05:56:34;;;;;;;15.50;10.15;;;;;;;0.30;100.00;99577.13;5073275;28;20203;-73
2023/03/09 05:59:03;;;;;;;16.42;9.85;;;;;;;0.30;100.00;99579.75;5074027;28;20084;-73
2023/03/09 06:01:30;;;;;;;16.33;10.07;;;;;;;0.31;100.00;99581.97;5072236;28;20056;-74
2023/03/09 06:04:05;;;;;;;16.40;10.02;;;;;;;0.31;100.00;99586.44;5073187;28;20052;-74
2023/03/09 06:06:35;;;;;;;19.52;10.55;;;;;;;0.31;100.00;99591.69;5072920;28;20470;-74
2023/03/09 06:09:02;;;;;;;14.95;9.90;;;;;;;0.32;100.00;99599.16;5071823;28;20143;-75
2023/03/09 06:11:29;;;;;;;16.13;10.02;;;;;;;0.32;100.00;99603.66;5072055;28;20107;-74
2023/03/09 06:13:57;;;;;;;18.35;10.60;;;;;;;0.33;100.00;99607.75;5072416;28;20059;-74
2023/03/09 06:16:32;;;;;;;17.63;9.38;;;;;;;0.36;100.00;99611.44;5072375;28;20403;-74
2023/03/09 06:18:59;;;;;;;16.10;10.02;;;;;;;0.36;100.00;99614.06;5072214;28;20625;-74
2023/03/09 06:21:25;;;;;;;19.75;9.73;;;;;;;0.37;100.00;99610.31;5071923;28;20041;-74
2023/03/09 06:23:54;;;;;;;17.00;10.13;;;;;;;0.38;100.00;99611.78;5055283;28;20045;-72
2023/03/09 06:26:22;;;;;;;18.30;10.23;;;;;;;0.39;100.00;99613.28;5073089;28;20620;-72
2023/03/09 06:28:54;;;;;;;16.77;9.88;;;;;;;0.41;100.00;99621.44;5073289;28;20048;-73
2023/03/09 06:31:21;;;;;;;16.60;10.40;;;;;;;0.40;100.00;99625.22;5072240;28;20045;-73
2023/03/09 06:33:51;;;;;;;17.58;10.70;;;;;;;0.38;100.00;99628.25;5071983;28;20418;-73
2023/03/09 06:36:19;;;;;;;17.98;10.80;;;;;;;0.42;100.00;99625.53;5071475;28;20063;-73
2023/03/09 06:38:49;;;;;;;15.10;9.10;;;;;;;0.44;100.00;99626.63;5071665;28;20049;-72
2023/03/09 06:41:29;;;;;;;16.35;10.60;;;;;;;0.46;100.00;99647.19;5072561;28;20041;-73
2023/03/09 06:44:00;;;;;;;16.88;9.95;;;;;;;0.47;100.00;99654.66;5072843;28;20049;-73
2023/03/09 06:46:28;;;;;;;16.95;10.23;;;;;;;0.48;100.00;99658.75;5072311;28;20045;-73
2023/03/09 06:48:55;;;;;;;13.15;9.70;;;;;;;0.49;100.00;99667.34;5072249;28;20075;-75
2023/03/09 06:51:22;;;;;;;19.13;10.55;;;;;;;0.51;100.00;99672.94;5073859;28;20056;-72
2023/03/09 06:53:48;;;;;;;22.65;10.80;;;;;;;0.55;100.00;99671.00;5073796;28;20127;-73
2023/03/09 06:56:21;;;;;;;14.02;9.52;;;;;;;0.56;100.00;99669.88;5072359;28;20053;-72
2023/03/09 06:58:48;;;;;;;19.05;10.77;;;;;;;0.56;100.00;99675.84;5073002;28;20041;-72
2023/03/09 07:01:16;;;;;;;15.88;9.95;;;;;;;0.56;100.00;99688.19;5072059;28;20457;-72
2023/03/09 07:03:44;;;;;;;17.63;10.95;;;;;;;0.55;100.00;99692.69;5072162;28;20048;-74
2023/03/09 07:06:10;;;;;;;18.98;10.73;;;;;;;0.56;100.00;99693.44;5055116;28;20102;-74
2023/03/09 07:08:37;;;;;;;17.48;11.07;;;;;;;0.58;100.00;99704.25;5073496;28;20049;-74
2023/03/09 07:11:04;;;;;;;15.80;10.20;;;;;;;0.60;100.00;99707.97;5073797;28;20045;-75
2023/03/09 07:13:32;;;;;;;15.25;10.07;;;;;;;0.62;100.00;99710.19;5073562;28;20041;-74
2023/03/09 07:16:02;;;;;;;16.77;10.57;;;;;;;0.63;100.00;99722.88;5072398;28;20053;-74
2023/03/09 07:18:31;;;;;;;14.70;10.02;;;;;;;0.68;100.00;99728.81;5073761;28;20506;-75
2023/03/09 07:21:02;;;;;;;17.58;10.63;;;;;;;0.72;100.00;99732.88;5073124;28;20093;-74
2023/03/09 07:23:31;;;;;;;17.70;10.97;;;;;;;0.76;100.00;99735.44;5073178;28;20045;-75
2023/03/09 07:26:03;;;;;;;17.05;10.35;;;;;;;0.79;100.00;99732.78;5072026;28;20302;-74
2023/03/09 07:28:30;;;;;;;19.38;10.68;;;;;;;0.81;100.00;99737.59;5073046;28;20063;-75
2023/03/09 07:30:57;;;;;;;16.58;10.55;;;;;;;0.83;100.00;99736.06;5073685;28;20108;-74
2023/03/09 07:33:23;;;;;;;15.88;9.93;;;;;;;0.79;100.00;99740.63;5073229;28;20077;-74
2023/03/09 07:35:50;;;;;;;18.58;11.63;;;;;;;0.81;100.00;99738.34;5072971;28;20191;-75
2023/03/09 07:38:16;;;;;;;17.55;10.52;;;;;;;0.87;100.00;99736.00;5073346;28;20049;-74
2023/03/09 07:40:43;;;;;;;17.80;11.38;;;;;;;0.92;100.00;99744.16;5073578;28;20044;-74
2023/03/09 07:43:11;;;;;;;18.88;11.25;;;;;;;0.96;100.00;99744.84;5071335;28;20059;-74
2023/03/09 07:45:43;;;;;;;17.40;10.45;;;;;;;1.00;100.00;99747.44;5071974;28;20049;-74
2023/03/09 07:48:11;;;;;;;18.08;11.60;;;;;;;0.99;100.00;99756.44;5072987;28;20055;-74
2023/03/09 07:50:37;;;;;;;19.55;10.85;;;;;;;1.03;100.00;99757.13;5072629;28;20047;-74
2023/03/09 07:53:04;;;;;;;17.05;10.40;;;;;;;1.07;100.00;99775.41;5073166;28;20044;-74
2023/03/09 07:55:34;;;;;;;17.98;10.27;;;;;;;1.10;100.00;99774.63;5072500;28;20056;-74
2023/03/09 07:58:02;;;;;;;19.08;11.50;;;;;;;1.15;100.00;99782.03;5073131;28;20049;-74
2023/03/09 08:00:28;;;;;;;18.92;10.98;;;;;;;1.17;100.00;99779.75;5072702;28;20572;-76
2023/03/09 08:02:56;;;;;;;18.75;11.15;;;;;;;1.16;100.00;99776.41;5073098;28;20045;-74
2023/03/09 08:05:24;;;;;;;18.77;11.13;;;;;;;1.16;100.00;99773.78;5072216;28;20502;-75
2023/03/09 08:07:51;;;;;;;20.95;12.15;;;;;;;1.18;100.00;99766.25;5072402;28;20041;-75
2023/03/09 08:10:18;;;;;;;18.33;10.77;;;;;;;1.17;100.00;99777.88;5072655;28;20644;-75
2023/03/09 08:12:49;;;;;;;24.10;11.32;;;;;;;1.22;100.00;99779.28;5072647;28;20494;-75
2023/03/09 08:15:18;;;;;;;18.20;10.85;;;;;;;1.23;100.00;99780.78;5072456;28;20495;-75
2023/03/09 08:17:45;;;;;;;21.23;10.82;;;;;;;1.26;100.00;99785.97;5072870;28;20417;-74
2023/03/09 08:20:11;;;;;;;17.70;11.63;;;;;;;1.35;100.00;99785.47;5072191;28;20060;-75
2023/03/09 08:22:38;;;;;;;19.05;11.48;;;;;;;1.44;100.00;99798.06;5072479;28;20049;-75
2023/03/09 08:25:06;;;;;;;18.77;11.60;;;;;;;1.52;100.00;99799.44;5071012;28;20075;-75
2023/03/09 08:27:42;;;;;;;19.83;11.48;;;;;;;1.52;99.68;99797.56;5072523;28;20576;-75
2023/03/09 08:30:10;;;;;;;19.85;11.73;;;;;;;1.55;99.63;99809.13;5072285;28;20099;-75
2023/03/09 08:32:38;;;;;;;16.27;10.93;;;;;;;1.56;98.86;99813.97;5070458;28;20567;-74
2023/03/09 08:35:06;;;;;;;18.35;10.93;;;;;;;1.52;98.95;99815.16;5070699;28;20140;-74
2023/03/09 08:37:32;;;;;;;20.38;12.15;;;;;;;1.54;98.93;99811.00;5071433;28;20045;-74
2023/03/09 08:39:59;;;;;;;21.98;12.15;;;;;;;1.53;98.81;99814.03;5071877;28;20481;-74
2023/03/09 08:42:26;;;;;;;19.10;11.80;;;;;;;1.52;98.61;99828.28;5071468;28;20045;-75
2023/03/09 08:44:52;;;;;;;20.92;11.18;;;;;;;1.53;98.71;99838.38;5072076;28;20080;-75
2023/03/09 08:47:19;;;;;;;19.45;11.43;;;;;;;1.62;98.70;99846.47;5072354;28;20091;-76
2023/03/09 08:49:47;;;;;;;18.48;11.57;;;;;;;1.67;98.42;99853.13;5068229;28;20045;-76
2023/03/09 08:52:13;;;;;;;17.55;10.93;;;;;;;1.73;98.32;99851.53;5071498;28;20537;-76
2023/03/09 08:54:40;;;;;;;23.05;12.35;;;;;;;1.74;98.12;99844.41;5072103;28;20041;-76
2023/03/09 08:57:06;;;;;;;20.10;11.93;;;;;;;1.75;97.82;99848.53;5072275;28;20054;-75
2023/03/09 08:59:34;;;;;;;21.27;12.13;;;;;;;1.77;97.71;99852.22;5072125;28;20509;-76
2023/03/09 09:02:04;;;;;;;20.52;12.55;;;;;;;1.79;96.98;99846.56;5072048;28;20049;-75
2023/03/09 09:04:31;;;;;;;17.95;11.48;;;;;;;1.79;96.42;99849.19;5069978;28;20049;-76
2023/03/09 09:06:58;;;;;;;21.50;12.10;;;;;;;1.81;96.46;99850.28;5070787;28;20085;-76
2023/03/09 09:09:25;;;;;;;19.25;11.75;;;;;;;1.85;96.46;99844.97;5071551;28;20041;-76
2023/03/09 09:11:51;;;;;;;21.88;12.65;;;;;;;1.92;96.25;99844.84;5071920;28;20077;-75
2023/03/09 09:14:18;;;;;;;19.63;12.40;;;;;;;1.89;95.92;99841.16;5071799;28;20103;-75
2023/03/09 09:16:44;;;;;;;18.73;11.98;;;;;;;1.90;96.45;99853.13;5070986;28;20045;-75
2023/03/09 09:19:11;;;;;;;16.90;11.20;;;;;;;1.97;95.97;99858.28;5071458;28;20089;-75
2023/03/09 09:21:38;;;;;;;23.33;12.48;;;;;;;1.95;95.31;99857.94;5074669;28;20040;-75
2023/03/09 09:24:05;;;;;;;21.45;12.68;;;;;;;2.00;95.53;99873.19;5075492;28;20041;-75
2023/03/09 09:26:31;;;;;;;21.98;12.55;;;;;;;2.03;95.01;99884.03;5070090;28;20049;-75
2023/03/09 09:29:00;;;;;;;23.90;12.77;;;;;;;2.09;95.29;99880.53;5075323;28;20048;-76
2023/03/09 09:31:28;;;;;;;22.08;13.05;;;;;;;2.19;95.29;99897.25;5074406;28;20041;-76
2023/03/09 09:33:59;;;;;;;;;;;;;;;2.24;95.37;99894.91;5074003;28;20049;-75
2023/03/09 09:36:26;;;;;;;20.42;11.10;;;;;;;2.23;94.39;99885.56;5074769;28;19933;-75
2023/03/09 09:38:53;;;;;;;22.58;12.70;;;;;;;2.25;94.06;99885.16;5075065;28;20088;-75
2023/03/09 09:41:30;;;;;;;20.17;12.70;;;;;;;2.27;94.04;99880.97;5074779;28;20067;-75
2023/03/09 09:44:01;;;;;;;24.73;13.35;;;;;;;2.36;94.04;99884.97;5075239;28;20044;-76
2023/03/09 09:46:30;;;;;;;24.30;12.07;;;;;;;2.39;93.94;99892.03;5074431;28;20052;-78
2023/03/09 09:48:59;;;;;;;21.35;13.30;;;;;;;2.42;93.73;99880.72;5074890;28;20879;-75
2023/03/09 09:51:48;;;;;;;20.38;12.80;;;;;;;2.46;93.76;99884.00;5074827;28;20068;-79
2023/03/09 09:54:39;;;;;;;21.02;12.38;;;;;;;2.53;94.20;99887.25;5056165;28;20045;-79
2023/03/09 09:57:23;;;;;;;23.10;12.50;;;;;;;2.53;93.46;99883.88;5074740;28;20052;-76
2023/03/09 09:59:55;;;;;;;21.02;13.48;;;;;;;2.53;93.25;99887.25;5075229;28;20060;-78
2023/03/09 10:02:38;;;;;;;21.60;12.38;;;;;;;2.63;93.55;99888.94;5074278;28;20041;-77
2023/03/09 10:05:16;;;;;;;22.08;12.85;;;;;;;2.70;93.39;99905.72;5073304;28;20445;-77
2023/03/09 10:07:43;;;;;;;22.30;13.63;;;;;;;2.74;92.91;99909.03;5074903;28;20049;-77
2023/03/09 10:10:18;;;;;;;19.55;12.35;;;;;;;2.76;92.84;99896.94;5074428;28;20045;-78
2023/03/09 10:12:46;;;;;;;20.45;12.88;;;;;;;2.82;92.91;99900.56;5069745;28;20096;-77
2023/03/09 10:15:35;;;;;;;22.00;12.57;;;;;;;2.80;92.17;99900.22;5104663;27;20045;-78
2023/03/09 10:18:16;;;;;;;21.17;12.63;;;;;;;2.85;92.10;99899.00;5107472;27;20045;-77
2023/03/09 10:20:49;;;;;;;23.02;13.18;;;;;;;2.83;91.76;99899.41;5075060;28;20393;-80
2023/03/09 10:23:22;;;;;;;22.80;13.55;;;;;;;2.80;91.73;99887.09;5074806;28;20112;-80
2023/03/09 10:25:52;;;;;;;23.98;12.18;;;;;;;2.84;91.77;99884.38;5075159;28;20045;-79
2023/03/09 10:28:21;;;;;;;21.85;13.20;;;;;;;2.82;91.39;99890.06;5074926;28;20103;-79
2023/03/09 10:31:16;;;;;;;21.50;12.80;;;;;;;2.88;91.57;99890.31;5073941;28;20494;-77
2023/03/09 10:33:58;;;;;;;24.48;13.30;;;;;;;2.94;91.15;99894.69;5057036;28;20049;-78
2023/03/09 10:36:31;;;;;;;24.40;12.88;;;;;;;2.93;91.24;99897.72;5073865;28;20055;-78
2023/03/09 10:39:10;;;;;;;22.92;13.18;;;;;;;2.95;91.19;99898.06;5073186;28;20120;-78
2023/03/09 10:41:36;;;;;;;21.38;12.98;;;;;;;2.99;90.65;99907.34;5072086;28;20466;-77
2023/03/09 10:44:04;;;;;;;25.52;13.75;;;;;;;3.04;90.69;99913.28;5055575;28;20107;-78
2023/03/09 10:46:31;;;;;;;24.85;13.60;;;;;;;3.14;90.53;99913.06;5060185;28;20045;-78
2023/03/09 10:49:14;;;;;;;25.35;13.23;;;;;;;3.18;89.82;99905.09;5072869;28;20521;-78
2023/03/09 10:51:52;;;;;;;20.60;12.27;;;;;;;3.26;90.13;99906.41;5073977;28;20056;-78
2023/03/09 10:54:30;;;;;;;21.33;12.77;;;;;;;3.27;89.63;99897.38;5072228;28;20228;-79
2023/03/09 10:56:57;;;;;;;20.38;12.20;;;;;;;3.24;89.11;99898.94;5073733;28;20052;-78
2023/03/09 10:59:25;;;;;;;24.92;13.32;;;;;;;3.30;89.56;99902.56;5071147;28;20045;-76
2023/03/09 11:01:56;;;;;;;23.00;14.50;;;;;;;3.41;89.13;99891.81;5072590;28;20049;-77
2023/03/09 11:04:36;;;;;;;23.40;13.37;;;;;;;3.53;89.20;99893.06;5072555;28;20052;-77
2023/03/09 11:07:18;;;;;;;20.60;12.93;;;;;;;3.61;89.25;99895.09;5074020;28;20061;-77
2023/03/09 11:09:48;;;;;;;21.35;13.55;;;;;;;3.57;88.04;99891.81;5073671;28;20529;-77
2023/03/09 11:12:21;;;;;;;21.45;13.02;;;;;;;3.49;87.34;99893.13;5074256;28;20543;-79
2023/03/09 11:14:50;;;;;;;26.60;14.20;;;;;;;3.41;88.12;99897.06;5051893;28;20053;-80
2023/03/09 11:17:30;;;;;;;21.52;13.60;;;;;;;3.41;88.38;99906.84;5072488;28;20049;-79
2023/03/09 11:20:12;;;;;;;23.77;12.90;;;;;;;3.33;88.40;99914.16;5073637;28;20048;-78
2023/03/09 11:22:44;;;;;;;23.33;13.65;;;;;;;3.28;89.15;99918.00;5073561;28;20076;-78
2023/03/09 11:25:34;;;;;;;26.25;14.57;;;;;;;3.30;89.25;99922.88;5073308;28;20091;-79
2023/03/09 11:28:12;;;;;;;23.40;13.40;;;;;;;3.40;89.31;99918.53;5057862;28;20084;-78
2023/03/09 11:30:40;;;;;;;23.27;12.73;;;;;;;3.40;88.91;99918.53;5073654;28;20045;-77
2023/03/09 11:33:12;;;;;;;23.17;13.48;;;;;;;3.37;89.06;99917.44;5071809;28;20049;-76
2023/03/09 11:35:39;;;;;;;24.08;13.18;;;;;;;3.38;89.13;99918.19;5073314;28;20487;-77